sensor_id;sensor_type;location;lat;lon;timestamp;P1;durP1;ratioP1;P2;durP2;ratioP2
83807;SDS011;73824;40.292;17.998;2023-11-19T00:00:44;5.22;;;0.80;;
83807;SDS011;73824;40.292;17.998;2023-11-19T00:06:58;6.43;;;0.40;;
83807;SDS011;73824;40.292;17.998;2023-11-19T00:09:42;5.38;;;0.70;;
83807;SDS011;73824;40.292;17.998;2023-11-19T00:16:08;4.28;;;0.45;;
83807;SDS011;73824;40.292;17.998;2023-11-19T00:18:57;5.50;;;0.63;;
83807;SDS011;73824;40.292;17.998;2023-11-19T00:21:25;4.38;;;0.50;;
83807;SDS011;73824;40.292;17.998;2023-11-19T00:28:05;6.85;;;0.50;;
83807;SDS011;73824;40.292;17.998;2023-11-19T00:30:59;4.78;;;0.50;;
83807;SDS011;73824;40.292;17.998;2023-11-19T00:34:06;4.72;;;0.40;;
83807;SDS011;73824;40.292;17.998;2023-11-19T00:37:31;3.70;;;0.43;;
83807;SDS011;73824;40.292;17.998;2023-11-19T00:40:41;4.75;;;0.50;;
83807;SDS011;73824;40.292;17.998;2023-11-19T01:18:10;5.03;;;0.50;;
83807;SDS011;73824;40.292;17.998;2023-11-19T01:27:48;4.38;;;0.50;;
83807;SDS011;73824;40.292;17.998;2023-11-19T01:30:58;3.33;;;0.30;;
83807;SDS011;73824;40.292;17.998;2023-11-19T01:34:06;3.45;;;0.40;;
83807;SDS011;73824;40.292;17.998;2023-11-19T01:37:19;4.32;;;0.32;;
83807;SDS011;73824;40.292;17.998;2023-11-19T01:40:08;7.50;;;0.55;;
83807;SDS011;73824;40.292;17.998;2023-11-19T01:42:37;2.15;;;0.30;;
83807;SDS011;73824;40.292;17.998;2023-11-19T01:45:27;3.22;;;0.30;;
83807;SDS011;73824;40.292;17.998;2023-11-19T01:48:41;2.63;;;0.30;;
83807;SDS011;73824;40.292;17.998;2023-11-19T01:52:02;3.25;;;0.45;;
83807;SDS011;73824;40.292;17.998;2023-11-19T01:54:36;4.35;;;0.70;;
83807;SDS011;73824;40.292;17.998;2023-11-19T01:57:02;2.90;;;0.25;;
83807;SDS011;73824;40.292;17.998;2023-11-19T01:59:55;3.63;;;0.30;;
83807;SDS011;73824;40.292;17.998;2023-11-19T02:02:28;3.25;;;0.30;;
83807;SDS011;73824;40.292;17.998;2023-11-19T02:05:06;3.13;;;0.30;;
83807;SDS011;73824;40.292;17.998;2023-11-19T02:07:57;7.72;;;0.50;;
83807;SDS011;73824;40.292;17.998;2023-11-19T02:11:04;4.05;;;0.47;;
83807;SDS011;73824;40.292;17.998;2023-11-19T02:14:05;3.85;;;0.45;;
83807;SDS011;73824;40.292;17.998;2023-11-19T02:20:30;4.35;;;0.40;;
83807;SDS011;73824;40.292;17.998;2023-11-19T02:23:57;2.78;;;0.30;;
83807;SDS011;73824;40.292;17.998;2023-11-19T02:26:52;4.40;;;0.30;;
83807;SDS011;73824;40.292;17.998;2023-11-19T02:33:25;3.00;;;0.30;;
83807;SDS011;73824;40.292;17.998;2023-11-19T02:36:33;4.35;;;0.30;;
83807;SDS011;73824;40.292;17.998;2023-11-19T02:39:06;6.22;;;0.40;;
83807;SDS011;73824;40.292;17.998;2023-11-19T02:41:59;5.65;;;0.50;;
83807;SDS011;73824;40.292;17.998;2023-11-19T02:44:50;4.57;;;0.40;;
83807;SDS011;73824;40.292;17.998;2023-11-19T02:47:51;5.05;;;0.40;;
83807;SDS011;73824;40.292;17.998;2023-11-19T02:50:42;5.18;;;0.45;;
83807;SDS011;73824;40.292;17.998;2023-11-19T02:53:34;5.30;;;0.50;;
83807;SDS011;73824;40.292;17.998;2023-11-19T02:56:31;5.05;;;0.40;;
83807;SDS011;73824;40.292;17.998;2023-11-19T02:59:18;4.00;;;0.45;;
83807;SDS011;73824;40.292;17.998;2023-11-19T03:02:25;3.45;;;0.30;;
83807;SDS011;73824;40.292;17.998;2023-11-19T03:05:32;3.22;;;0.30;;
83807;SDS011;73824;40.292;17.998;2023-11-19T03:08:04;4.50;;;0.40;;
83807;SDS011;73824;40.292;17.998;2023-11-19T03:10:33;3.28;;;0.38;;
83807;SDS011;73824;40.292;17.998;2023-11-19T03:12:59;3.97;;;0.40;;
83807;SDS011;73824;40.292;17.998;2023-11-19T03:15:30;3.90;;;0.40;;
83807;SDS011;73824;40.292;17.998;2023-11-19T03:17:56;3.90;;;0.40;;
83807;SDS011;73824;40.292;17.998;2023-11-19T03:20:22;3.97;;;0.80;;
83807;SDS011;73824;40.292;17.998;2023-11-19T03:22:50;5.45;;;0.50;;
83807;SDS011;73824;40.292;17.998;2023-11-19T03:25:16;3.53;;;0.50;;
83807;SDS011;73824;40.292;17.998;2023-11-19T03:27:43;6.97;;;0.80;;
83807;SDS011;73824;40.292;17.998;2023-11-19T03:30:08;2.43;;;0.30;;
83807;SDS011;73824;40.292;17.998;2023-11-19T03:32:35;5.00;;;0.55;;
83807;SDS011;73824;40.292;17.998;2023-11-19T03:35:01;5.70;;;0.55;;
83807;SDS011;73824;40.292;17.998;2023-11-19T03:37:33;3.43;;;0.40;;
83807;SDS011;73824;40.292;17.998;2023-11-19T03:39:59;4.13;;;0.40;;
83807;SDS011;73824;40.292;17.998;2023-11-19T03:42:26;4.88;;;0.50;;
83807;SDS011;73824;40.292;17.998;2023-11-19T03:45:12;3.90;;;0.30;;
83807;SDS011;73824;40.292;17.998;2023-11-19T03:47:38;4.25;;;0.70;;
83807;SDS011;73824;40.292;17.998;2023-11-19T03:50:24;5.18;;;0.40;;
83807;SDS011;73824;40.292;17.998;2023-11-19T03:53:21;3.72;;;0.40;;
83807;SDS011;73824;40.292;17.998;2023-11-19T03:56:28;4.20;;;0.40;;
83807;SDS011;73824;40.292;17.998;2023-11-19T03:59:00;3.63;;;0.40;;
83807;SDS011;73824;40.292;17.998;2023-11-19T04:01:26;4.32;;;0.40;;
83807;SDS011;73824;40.292;17.998;2023-11-19T04:03:51;5.20;;;0.50;;
83807;SDS011;73824;40.292;17.998;2023-11-19T04:06:17;7.90;;;1.00;;
83807;SDS011;73824;40.292;17.998;2023-11-19T04:08:43;5.68;;;0.75;;
83807;SDS011;73824;40.292;17.998;2023-11-19T04:11:09;6.28;;;0.50;;
83807;SDS011;73824;40.292;17.998;2023-11-19T04:13:35;4.43;;;0.50;;
83807;SDS011;73824;40.292;17.998;2023-11-19T04:16:01;6.68;;;0.50;;
83807;SDS011;73824;40.292;17.998;2023-11-19T04:18:28;3.58;;;0.40;;
83807;SDS011;73824;40.292;17.998;2023-11-19T04:20:53;5.40;;;0.40;;
83807;SDS011;73824;40.292;17.998;2023-11-19T04:23:31;4.57;;;0.55;;
83807;SDS011;73824;40.292;17.998;2023-11-19T04:26:41;3.20;;;0.40;;
83807;SDS011;73824;40.292;17.998;2023-11-19T04:29:12;6.80;;;0.80;;
83807;SDS011;73824;40.292;17.998;2023-11-19T04:32:15;3.35;;;0.30;;
83807;SDS011;73824;40.292;17.998;2023-11-19T04:35:09;7.28;;;0.65;;
83807;SDS011;73824;40.292;17.998;2023-11-19T04:37:55;4.22;;;0.50;;
83807;SDS011;73824;40.292;17.998;2023-11-19T04:40:41;3.95;;;0.45;;
83807;SDS011;73824;40.292;17.998;2023-11-19T04:43:44;3.47;;;0.47;;
83807;SDS011;73824;40.292;17.998;2023-11-19T04:46:12;7.82;;;1.55;;
83807;SDS011;73824;40.292;17.998;2023-11-19T04:48:50;7.57;;;0.60;;
83807;SDS011;73824;40.292;17.998;2023-11-19T04:51:54;5.82;;;0.50;;
83807;SDS011;73824;40.292;17.998;2023-11-19T04:54:58;5.85;;;0.77;;
83807;SDS011;73824;40.292;17.998;2023-11-19T04:58:18;5.60;;;1.00;;
83807;SDS011;73824;40.292;17.998;2023-11-19T05:01:16;8.48;;;1.80;;
83807;SDS011;73824;40.292;17.998;2023-11-19T05:04:03;6.28;;;1.20;;
83807;SDS011;73824;40.292;17.998;2023-11-19T05:06:32;5.28;;;0.98;;
83807;SDS011;73824;40.292;17.998;2023-11-19T05:08:58;6.70;;;0.67;;
83807;SDS011;73824;40.292;17.998;2023-11-19T05:11:35;5.28;;;0.60;;
83807;SDS011;73824;40.292;17.998;2023-11-19T05:14:04;6.93;;;0.80;;
83807;SDS011;73824;40.292;17.998;2023-11-19T05:16:30;5.72;;;1.08;;
83807;SDS011;73824;40.292;17.998;2023-11-19T05:18:56;9.57;;;1.73;;
83807;SDS011;73824;40.292;17.998;2023-11-19T05:21:22;6.07;;;1.07;;
83807;SDS011;73824;40.292;17.998;2023-11-19T05:23:48;11.82;;;2.15;;
83807;SDS011;73824;40.292;17.998;2023-11-19T05:26:21;8.60;;;1.10;;
83807;SDS011;73824;40.292;17.998;2023-11-19T05:28:48;6.20;;;0.90;;
83807;SDS011;73824;40.292;17.998;2023-11-19T05:31:16;5.47;;;0.85;;
83807;SDS011;73824;40.292;17.998;2023-11-19T05:33:44;5.00;;;0.80;;
83807;SDS011;73824;40.292;17.998;2023-11-19T05:36:10;5.13;;;0.80;;
83807;SDS011;73824;40.292;17.998;2023-11-19T05:38:37;7.25;;;1.20;;
83807;SDS011;73824;40.292;17.998;2023-11-19T05:41:48;6.43;;;0.90;;
83807;SDS011;73824;40.292;17.998;2023-11-19T05:44:01;7.03;;;1.30;;
83807;SDS011;73824;40.292;17.998;2023-11-19T05:46:27;7.90;;;1.70;;
83807;SDS011;73824;40.292;17.998;2023-11-19T05:48:52;6.28;;;1.48;;
83807;SDS011;73824;40.292;17.998;2023-11-19T05:51:18;7.83;;;1.80;;
83807;SDS011;73824;40.292;17.998;2023-11-19T05:53:44;9.20;;;2.30;;
83807;SDS011;73824;40.292;17.998;2023-11-19T05:56:15;7.53;;;1.15;;
83807;SDS011;73824;40.292;17.998;2023-11-19T05:58:46;7.82;;;1.30;;
83807;SDS011;73824;40.292;17.998;2023-11-19T06:01:13;5.30;;;0.95;;
83807;SDS011;73824;40.292;17.998;2023-11-19T06:03:39;5.70;;;0.90;;
83807;SDS011;73824;40.292;17.998;2023-11-19T06:06:42;6.20;;;1.10;;
83807;SDS011;73824;40.292;17.998;2023-11-19T06:09:10;5.57;;;1.33;;
83807;SDS011;73824;40.292;17.998;2023-11-19T06:11:45;8.70;;;1.10;;
83807;SDS011;73824;40.292;17.998;2023-11-19T06:14:14;11.60;;;1.17;;
83807;SDS011;73824;40.292;17.998;2023-11-19T06:16:57;4.25;;;0.80;;
83807;SDS011;73824;40.292;17.998;2023-11-19T06:19:36;5.85;;;0.75;;
83807;SDS011;73824;40.292;17.998;2023-11-19T06:22:06;4.35;;;0.70;;
83807;SDS011;73824;40.292;17.998;2023-11-19T06:52:38;3.80;;;0.50;;
83807;SDS011;73824;40.292;17.998;2023-11-19T07:23:33;5.43;;;1.73;;
83807;SDS011;73824;40.292;17.998;2023-11-19T07:33:31;5.13;;;1.67;;
83807;SDS011;73824;40.292;17.998;2023-11-19T08:05:23;8.98;;;2.10;;
83807;SDS011;73824;40.292;17.998;2023-11-19T08:12:01;7.30;;;2.30;;
83807;SDS011;73824;40.292;17.998;2023-11-19T08:18:09;5.82;;;2.35;;
83807;SDS011;73824;40.292;17.998;2023-11-19T08:21:00;5.57;;;2.53;;
83807;SDS011;73824;40.292;17.998;2023-11-19T08:23:25;6.33;;;2.77;;
83807;SDS011;73824;40.292;17.998;2023-11-19T08:26:06;6.75;;;2.90;;
83807;SDS011;73824;40.292;17.998;2023-11-19T08:28:35;6.55;;;3.35;;
83807;SDS011;73824;40.292;17.998;2023-11-19T08:31:12;6.45;;;2.53;;
83807;SDS011;73824;40.292;17.998;2023-11-19T08:33:52;8.30;;;2.80;;
83807;SDS011;73824;40.292;17.998;2023-11-19T08:36:44;5.90;;;2.33;;
83807;SDS011;73824;40.292;17.998;2023-11-19T08:39:59;6.50;;;3.13;;
83807;SDS011;73824;40.292;17.998;2023-11-19T08:42:45;6.90;;;2.88;;
83807;SDS011;73824;40.292;17.998;2023-11-19T08:45:17;7.80;;;3.63;;
83807;SDS011;73824;40.292;17.998;2023-11-19T08:47:55;8.15;;;3.42;;
83807;SDS011;73824;40.292;17.998;2023-11-19T08:51:02;7.40;;;2.70;;
83807;SDS011;73824;40.292;17.998;2023-11-19T08:54:03;5.55;;;2.55;;
83807;SDS011;73824;40.292;17.998;2023-11-19T08:56:50;7.07;;;3.22;;
83807;SDS011;73824;40.292;17.998;2023-11-19T08:59:16;6.90;;;2.67;;
83807;SDS011;73824;40.292;17.998;2023-11-19T09:01:42;8.35;;;2.70;;
83807;SDS011;73824;40.292;17.998;2023-11-19T09:04:08;6.47;;;2.57;;
83807;SDS011;73824;40.292;17.998;2023-11-19T09:06:43;7.55;;;2.83;;
83807;SDS011;73824;40.292;17.998;2023-11-19T09:09:17;6.00;;;2.10;;
83807;SDS011;73824;40.292;17.998;2023-11-19T09:12:34;4.53;;;1.50;;
83807;SDS011;73824;40.292;17.998;2023-11-19T09:15:05;4.75;;;1.48;;
83807;SDS011;73824;40.292;17.998;2023-11-19T09:17:40;5.30;;;1.30;;
83807;SDS011;73824;40.292;17.998;2023-11-19T09:20:06;6.10;;;1.70;;
83807;SDS011;73824;40.292;17.998;2023-11-19T09:22:33;5.07;;;1.60;;
83807;SDS011;73824;40.292;17.998;2023-11-19T09:25:02;6.43;;;2.35;;
83807;SDS011;73824;40.292;17.998;2023-11-19T14:02:39;6.03;;;1.50;;
83807;SDS011;73824;40.292;17.998;2023-11-19T15:08:39;11.35;;;4.63;;
83807;SDS011;73824;40.292;17.998;2023-11-19T15:56:40;35.80;;;13.20;;
83807;SDS011;73824;40.292;17.998;2023-11-19T19:00:00;74.07;;;35.28;;
83807;SDS011;73824;40.292;17.998;2023-11-19T19:07:10;64.57;;;28.03;;
83807;SDS011;73824;40.292;17.998;2023-11-19T19:27:19;97.97;;;40.28;;
83807;SDS011;73824;40.292;17.998;2023-11-19T19:34:21;66.03;;;31.20;;
83807;SDS011;73824;40.292;17.998;2023-11-19T20:01:58;53.20;;;24.40;;
83807;SDS011;73824;40.292;17.998;2023-11-19T20:39:30;40.15;;;20.15;;
83807;SDS011;73824;40.292;17.998;2023-11-19T20:49:41;32.20;;;15.13;;
83807;SDS011;73824;40.292;17.998;2023-11-19T20:59:29;33.70;;;15.45;;
83807;SDS011;73824;40.292;17.998;2023-11-19T21:09:42;41.38;;;18.67;;
83807;SDS011;73824;40.292;17.998;2023-11-19T21:19:54;40.88;;;19.58;;
83807;SDS011;73824;40.292;17.998;2023-11-19T21:29:33;38.85;;;18.33;;
83807;SDS011;73824;40.292;17.998;2023-11-19T21:32:28;44.40;;;20.88;;
83807;SDS011;73824;40.292;17.998;2023-11-19T21:38:37;36.33;;;17.70;;
83807;SDS011;73824;40.292;17.998;2023-11-19T21:41:18;41.00;;;19.13;;
83807;SDS011;73824;40.292;17.998;2023-11-19T21:51:43;34.85;;;16.65;;
83807;SDS011;73824;40.292;17.998;2023-11-19T22:22:03;28.02;;;13.93;;
83807;SDS011;73824;40.292;17.998;2023-11-19T22:25:05;27.42;;;14.52;;
83807;SDS011;73824;40.292;17.998;2023-11-19T22:28:15;28.87;;;14.70;;
83807;SDS011;73824;40.292;17.998;2023-11-19T22:31:36;26.88;;;13.70;;
83807;SDS011;73824;40.292;17.998;2023-11-19T22:38:11;28.73;;;13.65;;
83807;SDS011;73824;40.292;17.998;2023-11-19T23:06:13;24.30;;;11.63;;
83807;SDS011;73824;40.292;17.998;2023-11-19T23:12:42;23.25;;;12.07;;
83807;SDS011;73824;40.292;17.998;2023-11-19T23:15:39;26.70;;;12.70;;
83807;SDS011;73824;40.292;17.998;2023-11-19T23:18:40;29.80;;;15.33;;
83807;SDS011;73824;40.292;17.998;2023-11-19T23:21:44;28.00;;;13.95;;
83807;SDS011;73824;40.292;17.998;2023-11-19T23:24:14;30.30;;;15.95;;
83807;SDS011;73824;40.292;17.998;2023-11-19T23:27:25;34.90;;;16.10;;
83807;SDS011;73824;40.292;17.998;2023-11-19T23:29:51;33.00;;;16.83;;
83807;SDS011;73824;40.292;17.998;2023-11-19T23:32:20;34.27;;;16.17;;
83807;SDS011;73824;40.292;17.998;2023-11-19T23:34:48;32.70;;;17.20;;
83807;SDS011;73824;40.292;17.998;2023-11-19T23:37:14;34.05;;;17.08;;
83807;SDS011;73824;40.292;17.998;2023-11-19T23:39:42;33.13;;;16.52;;
83807;SDS011;73824;40.292;17.998;2023-11-19T23:42:08;30.03;;;14.17;;
83807;SDS011;73824;40.292;17.998;2023-11-19T23:44:38;31.13;;;14.75;;
83807;SDS011;73824;40.292;17.998;2023-11-19T23:47:13;26.30;;;14.15;;
83807;SDS011;73824;40.292;17.998;2023-11-19T23:50:02;25.92;;;13.35;;
83807;SDS011;73824;40.292;17.998;2023-11-19T23:52:31;26.45;;;13.50;;
83807;SDS011;73824;40.292;17.998;2023-11-19T23:54:59;28.23;;;13.53;;
83807;SDS011;73824;40.292;17.998;2023-11-19T23:57:28;26.17;;;12.93;;
83807;SDS011;73824;40.292;17.998;2023-11-19T23:59:54;25.63;;;13.05;;
